sensor_id;sensor_type;location;lat;lon;timestamp;P1;durP1;ratioP1;P2;durP2;ratioP2
2622;SDS011;1321;48.690;9.022;2023-04-03T00:01:13;7.83;;;7.47;;
2622;SDS011;1321;48.690;9.022;2023-04-03T00:03:42;8.93;;;8.53;;
2622;SDS011;1321;48.690;9.022;2023-04-03T00:06:11;8.47;;;7.80;;
2622;SDS011;1321;48.690;9.022;2023-04-03T00:08:39;8.23;;;7.93;;
2622;SDS011;1321;48.690;9.022;2023-04-03T00:11:08;8.20;;;7.90;;
2622;SDS011;1321;48.690;9.022;2023-04-03T00:13:37;8.03;;;7.73;;
2622;SDS011;1321;48.690;9.022;2023-04-03T00:16:07;8.40;;;8.00;;
2622;SDS011;1321;48.690;9.022;2023-04-03T00:18:37;8.63;;;8.13;;
2622;SDS011;1321;48.690;9.022;2023-04-03T00:21:06;8.30;;;7.90;;
2622;SDS011;1321;48.690;9.022;2023-04-03T00:23:35;9.57;;;9.00;;
2622;SDS011;1321;48.690;9.022;2023-04-03T00:26:03;9.53;;;9.03;;
2622;SDS011;1321;48.690;9.022;2023-04-03T00:28:31;8.30;;;8.10;;
2622;SDS011;1321;48.690;9.022;2023-04-03T00:30:59;8.00;;;7.70;;
2622;SDS011;1321;48.690;9.022;2023-04-03T00:33:29;7.30;;;6.97;;
2622;SDS011;1321;48.690;9.022;2023-04-03T00:35:57;7.73;;;7.53;;
2622;SDS011;1321;48.690;9.022;2023-04-03T00:38:25;8.20;;;7.90;;
2622;SDS011;1321;48.690;9.022;2023-04-03T00:40:54;8.60;;;8.00;;
2622;SDS011;1321;48.690;9.022;2023-04-03T00:43:23;7.80;;;7.57;;
2622;SDS011;1321;48.690;9.022;2023-04-03T00:45:53;8.27;;;7.97;;
2622;SDS011;1321;48.690;9.022;2023-04-03T00:48:23;7.97;;;7.67;;
2622;SDS011;1321;48.690;9.022;2023-04-03T00:50:55;8.17;;;7.90;;
2622;SDS011;1321;48.690;9.022;2023-04-03T00:53:25;7.67;;;7.27;;
2622;SDS011;1321;48.690;9.022;2023-04-03T00:55:57;7.70;;;7.40;;
2622;SDS011;1321;48.690;9.022;2023-04-03T00:58:26;8.20;;;8.00;;
2622;SDS011;1321;48.690;9.022;2023-04-03T01:01:02;8.03;;;7.80;;
2622;SDS011;1321;48.690;9.022;2023-04-03T01:03:34;7.47;;;7.13;;
2622;SDS011;1321;48.690;9.022;2023-04-03T01:06:04;7.43;;;7.23;;
2622;SDS011;1321;48.690;9.022;2023-04-03T01:08:32;8.10;;;7.63;;
2622;SDS011;1321;48.690;9.022;2023-04-03T01:11:02;8.00;;;7.40;;
2622;SDS011;1321;48.690;9.022;2023-04-03T01:13:30;7.50;;;7.30;;
2622;SDS011;1321;48.690;9.022;2023-04-03T01:16:00;7.40;;;7.20;;
2622;SDS011;1321;48.690;9.022;2023-04-03T01:18:29;7.80;;;7.40;;
2622;SDS011;1321;48.690;9.022;2023-04-03T01:21:14;7.67;;;7.27;;
2622;SDS011;1321;48.690;9.022;2023-04-03T01:24:06;7.67;;;7.37;;
2622;SDS011;1321;48.690;9.022;2023-04-03T01:26:41;7.70;;;7.30;;
2622;SDS011;1321;48.690;9.022;2023-04-03T01:29:09;6.73;;;6.43;;
2622;SDS011;1321;48.690;9.022;2023-04-03T01:31:47;7.17;;;6.90;;
2622;SDS011;1321;48.690;9.022;2023-04-03T01:34:16;7.37;;;7.13;;
2622;SDS011;1321;48.690;9.022;2023-04-03T01:36:45;7.53;;;7.33;;
2622;SDS011;1321;48.690;9.022;2023-04-03T01:39:13;8.23;;;7.73;;
2622;SDS011;1321;48.690;9.022;2023-04-03T01:41:42;8.23;;;7.80;;
2622;SDS011;1321;48.690;9.022;2023-04-03T01:44:11;7.47;;;7.10;;
2622;SDS011;1321;48.690;9.022;2023-04-03T01:46:40;7.10;;;6.90;;
2622;SDS011;1321;48.690;9.022;2023-04-03T01:49:10;8.00;;;7.60;;
2622;SDS011;1321;48.690;9.022;2023-04-03T01:51:38;7.40;;;6.90;;
2622;SDS011;1321;48.690;9.022;2023-04-03T01:54:06;8.30;;;7.80;;
2622;SDS011;1321;48.690;9.022;2023-04-03T01:56:34;7.40;;;7.20;;
2622;SDS011;1321;48.690;9.022;2023-04-03T01:59:02;7.10;;;6.90;;
2622;SDS011;1321;48.690;9.022;2023-04-03T02:01:30;7.23;;;6.93;;
2622;SDS011;1321;48.690;9.022;2023-04-03T02:03:58;7.13;;;6.77;;
2622;SDS011;1321;48.690;9.022;2023-04-03T02:06:28;7.17;;;6.87;;
2622;SDS011;1321;48.690;9.022;2023-04-03T02:08:56;6.80;;;6.40;;
2622;SDS011;1321;48.690;9.022;2023-04-03T02:11:24;7.37;;;7.07;;
2622;SDS011;1321;48.690;9.022;2023-04-03T02:13:52;6.65;;;6.55;;
2622;SDS011;1321;48.690;9.022;2023-04-03T02:16:20;7.30;;;7.10;;
2622;SDS011;1321;48.690;9.022;2023-04-03T02:18:49;7.77;;;7.33;;
2622;SDS011;1321;48.690;9.022;2023-04-03T02:21:17;7.60;;;7.27;;
2622;SDS011;1321;48.690;9.022;2023-04-03T02:23:46;7.10;;;6.75;;
2622;SDS011;1321;48.690;9.022;2023-04-03T02:26:15;7.47;;;7.17;;
2622;SDS011;1321;48.690;9.022;2023-04-03T02:28:44;8.03;;;7.73;;
2622;SDS011;1321;48.690;9.022;2023-04-03T02:31:12;7.20;;;6.90;;
2622;SDS011;1321;48.690;9.022;2023-04-03T02:33:40;7.90;;;7.40;;
2622;SDS011;1321;48.690;9.022;2023-04-03T02:36:09;7.00;;;6.70;;
2622;SDS011;1321;48.690;9.022;2023-04-03T02:38:37;7.57;;;7.20;;
2622;SDS011;1321;48.690;9.022;2023-04-03T02:41:07;7.32;;;7.03;;
2622;SDS011;1321;48.690;9.022;2023-04-03T02:43:37;7.43;;;7.03;;
2622;SDS011;1321;48.690;9.022;2023-04-03T02:46:06;7.72;;;7.13;;
2622;SDS011;1321;48.690;9.022;2023-04-03T02:48:35;7.80;;;7.40;;
2622;SDS011;1321;48.690;9.022;2023-04-03T02:51:04;8.00;;;7.50;;
2622;SDS011;1321;48.690;9.022;2023-04-03T02:53:33;7.87;;;7.57;;
2622;SDS011;1321;48.690;9.022;2023-04-03T02:56:01;7.60;;;7.40;;
2622;SDS011;1321;48.690;9.022;2023-04-03T02:58:30;7.60;;;7.30;;
2622;SDS011;1321;48.690;9.022;2023-04-03T03:00:59;7.57;;;7.37;;
2622;SDS011;1321;48.690;9.022;2023-04-03T03:03:27;8.10;;;7.80;;
2622;SDS011;1321;48.690;9.022;2023-04-03T03:06:02;8.30;;;7.80;;
2622;SDS011;1321;48.690;9.022;2023-04-03T03:08:31;8.37;;;8.07;;
2622;SDS011;1321;48.690;9.022;2023-04-03T03:10:59;6.77;;;6.60;;
2622;SDS011;1321;48.690;9.022;2023-04-03T03:13:27;7.13;;;6.90;;
2622;SDS011;1321;48.690;9.022;2023-04-03T03:15:57;8.30;;;7.97;;
2622;SDS011;1321;48.690;9.022;2023-04-03T03:18:25;7.27;;;7.07;;
2622;SDS011;1321;48.690;9.022;2023-04-03T03:20:54;7.43;;;7.13;;
2622;SDS011;1321;48.690;9.022;2023-04-03T03:23:24;7.90;;;7.70;;
2622;SDS011;1321;48.690;9.022;2023-04-03T03:25:54;7.70;;;7.40;;
2622;SDS011;1321;48.690;9.022;2023-04-03T03:28:23;7.53;;;7.33;;
2622;SDS011;1321;48.690;9.022;2023-04-03T03:30:52;7.88;;;7.53;;
2622;SDS011;1321;48.690;9.022;2023-04-03T03:33:22;8.03;;;7.73;;
2622;SDS011;1321;48.690;9.022;2023-04-03T03:35:50;7.70;;;7.15;;
2622;SDS011;1321;48.690;9.022;2023-04-03T03:38:19;7.80;;;7.50;;
2622;SDS011;1321;48.690;9.022;2023-04-03T03:40:47;7.25;;;6.90;;
2622;SDS011;1321;48.690;9.022;2023-04-03T03:43:16;8.20;;;7.90;;
2622;SDS011;1321;48.690;9.022;2023-04-03T03:45:45;7.60;;;7.37;;
2622;SDS011;1321;48.690;9.022;2023-04-03T03:48:18;7.57;;;7.38;;
2622;SDS011;1321;48.690;9.022;2023-04-03T03:50:48;8.30;;;7.80;;
2622;SDS011;1321;48.690;9.022;2023-04-03T03:53:17;8.00;;;7.70;;
2622;SDS011;1321;48.690;9.022;2023-04-03T03:55:45;7.77;;;7.50;;
2622;SDS011;1321;48.690;9.022;2023-04-03T03:58:13;7.60;;;7.30;;
2622;SDS011;1321;48.690;9.022;2023-04-03T04:00:41;8.05;;;7.65;;
2622;SDS011;1321;48.690;9.022;2023-04-03T04:03:10;7.73;;;7.43;;
2622;SDS011;1321;48.690;9.022;2023-04-03T04:05:38;7.50;;;7.10;;
2622;SDS011;1321;48.690;9.022;2023-04-03T04:08:08;6.90;;;6.70;;
2622;SDS011;1321;48.690;9.022;2023-04-03T04:10:36;7.33;;;7.03;;
2622;SDS011;1321;48.690;9.022;2023-04-03T04:13:06;7.03;;;6.83;;
2622;SDS011;1321;48.690;9.022;2023-04-03T04:15:34;7.90;;;7.50;;
2622;SDS011;1321;48.690;9.022;2023-04-03T04:18:03;7.68;;;7.38;;
2622;SDS011;1321;48.690;9.022;2023-04-03T04:20:31;7.60;;;7.30;;
2622;SDS011;1321;48.690;9.022;2023-04-03T04:22:59;6.93;;;6.72;;
2622;SDS011;1321;48.690;9.022;2023-04-03T04:25:29;8.37;;;7.87;;
2622;SDS011;1321;48.690;9.022;2023-04-03T04:27:57;7.63;;;7.33;;
2622;SDS011;1321;48.690;9.022;2023-04-03T04:30:25;7.70;;;7.40;;
2622;SDS011;1321;48.690;9.022;2023-04-03T04:32:54;7.73;;;7.40;;
2622;SDS011;1321;48.690;9.022;2023-04-03T04:35:22;7.38;;;6.95;;
2622;SDS011;1321;48.690;9.022;2023-04-03T04:37:50;7.50;;;7.10;;
2622;SDS011;1321;48.690;9.022;2023-04-03T04:40:18;7.70;;;7.40;;
2622;SDS011;1321;48.690;9.022;2023-04-03T04:42:48;7.60;;;7.30;;
2622;SDS011;1321;48.690;9.022;2023-04-03T04:45:16;6.70;;;6.50;;
2622;SDS011;1321;48.690;9.022;2023-04-03T04:47:44;6.45;;;6.25;;
2622;SDS011;1321;48.690;9.022;2023-04-03T04:50:13;6.70;;;6.50;;
2622;SDS011;1321;48.690;9.022;2023-04-03T04:52:41;7.03;;;6.73;;
2622;SDS011;1321;48.690;9.022;2023-04-03T04:55:09;7.60;;;7.10;;
2622;SDS011;1321;48.690;9.022;2023-04-03T04:57:37;7.30;;;7.10;;
2622;SDS011;1321;48.690;9.022;2023-04-03T05:00:08;9.97;;;9.17;;
2622;SDS011;1321;48.690;9.022;2023-04-03T05:02:37;7.67;;;7.37;;
2622;SDS011;1321;48.690;9.022;2023-04-03T05:05:06;7.83;;;7.53;;
2622;SDS011;1321;48.690;9.022;2023-04-03T05:07:34;7.00;;;6.80;;
2622;SDS011;1321;48.690;9.022;2023-04-03T05:10:03;6.90;;;6.70;;
2622;SDS011;1321;48.690;9.022;2023-04-03T05:12:33;6.70;;;6.50;;
2622;SDS011;1321;48.690;9.022;2023-04-03T05:15:01;6.77;;;6.57;;
2622;SDS011;1321;48.690;9.022;2023-04-03T05:17:31;7.07;;;6.67;;
2622;SDS011;1321;48.690;9.022;2023-04-03T05:19:59;7.30;;;7.00;;
2622;SDS011;1321;48.690;9.022;2023-04-03T05:22:27;7.60;;;7.30;;
2622;SDS011;1321;48.690;9.022;2023-04-03T05:24:56;6.90;;;6.70;;
2622;SDS011;1321;48.690;9.022;2023-04-03T05:27:24;6.23;;;6.03;;
2622;SDS011;1321;48.690;9.022;2023-04-03T05:29:54;5.93;;;5.73;;
2622;SDS011;1321;48.690;9.022;2023-04-03T05:32:22;6.23;;;6.03;;
2622;SDS011;1321;48.690;9.022;2023-04-03T05:34:54;6.20;;;6.00;;
2622;SDS011;1321;48.690;9.022;2023-04-03T05:37:24;5.80;;;5.70;;
2622;SDS011;1321;48.690;9.022;2023-04-03T05:39:52;6.87;;;6.67;;
2622;SDS011;1321;48.690;9.022;2023-04-03T05:42:20;5.90;;;5.70;;
2622;SDS011;1321;48.690;9.022;2023-04-03T05:44:48;5.63;;;5.40;;
2622;SDS011;1321;48.690;9.022;2023-04-03T05:47:17;5.53;;;5.40;;
2622;SDS011;1321;48.690;9.022;2023-04-03T05:49:45;5.53;;;5.33;;
2622;SDS011;1321;48.690;9.022;2023-04-03T05:52:17;5.60;;;5.40;;
2622;SDS011;1321;48.690;9.022;2023-04-03T05:54:49;5.60;;;5.40;;
2622;SDS011;1321;48.690;9.022;2023-04-03T05:57:17;5.57;;;5.37;;
2622;SDS011;1321;48.690;9.022;2023-04-03T05:59:46;5.10;;;5.00;;
2622;SDS011;1321;48.690;9.022;2023-04-03T06:02:15;6.00;;;5.80;;
2622;SDS011;1321;48.690;9.022;2023-04-03T06:04:45;5.70;;;5.47;;
2622;SDS011;1321;48.690;9.022;2023-04-03T06:07:14;5.53;;;5.43;;
2622;SDS011;1321;48.690;9.022;2023-04-03T06:09:47;5.60;;;5.40;;
2622;SDS011;1321;48.690;9.022;2023-04-03T06:12:15;5.93;;;5.67;;
2622;SDS011;1321;48.690;9.022;2023-04-03T06:14:44;6.10;;;5.80;;
2622;SDS011;1321;48.690;9.022;2023-04-03T06:17:12;5.60;;;5.40;;
2622;SDS011;1321;48.690;9.022;2023-04-03T06:19:40;6.00;;;5.53;;
2622;SDS011;1321;48.690;9.022;2023-04-03T06:22:08;5.77;;;5.40;;
2622;SDS011;1321;48.690;9.022;2023-04-03T06:24:39;6.33;;;5.90;;
2622;SDS011;1321;48.690;9.022;2023-04-03T06:27:08;5.70;;;5.50;;
2622;SDS011;1321;48.690;9.022;2023-04-03T06:29:37;7.07;;;6.77;;
2622;SDS011;1321;48.690;9.022;2023-04-03T06:32:05;8.47;;;7.97;;
2622;SDS011;1321;48.690;9.022;2023-04-03T06:34:34;9.45;;;8.85;;
2622;SDS011;1321;48.690;9.022;2023-04-03T06:37:02;7.50;;;7.10;;
2622;SDS011;1321;48.690;9.022;2023-04-03T06:39:30;7.23;;;6.93;;
2622;SDS011;1321;48.690;9.022;2023-04-03T06:42:00;7.07;;;6.70;;
2622;SDS011;1321;48.690;9.022;2023-04-03T06:44:28;6.40;;;6.10;;
2622;SDS011;1321;48.690;9.022;2023-04-03T06:46:56;7.20;;;6.90;;
2622;SDS011;1321;48.690;9.022;2023-04-03T06:49:24;6.40;;;6.17;;
2622;SDS011;1321;48.690;9.022;2023-04-03T06:51:52;6.37;;;6.13;;
2622;SDS011;1321;48.690;9.022;2023-04-03T06:54:21;5.93;;;5.73;;
2622;SDS011;1321;48.690;9.022;2023-04-03T06:56:49;6.30;;;6.00;;
2622;SDS011;1321;48.690;9.022;2023-04-03T06:59:19;6.13;;;5.93;;
2622;SDS011;1321;48.690;9.022;2023-04-03T07:01:47;6.07;;;5.87;;
2622;SDS011;1321;48.690;9.022;2023-04-03T07:04:15;6.73;;;6.40;;
2622;SDS011;1321;48.690;9.022;2023-04-03T07:06:43;7.47;;;6.87;;
2622;SDS011;1321;48.690;9.022;2023-04-03T07:09:13;10.33;;;9.57;;
2622;SDS011;1321;48.690;9.022;2023-04-03T07:11:42;13.57;;;11.57;;
2622;SDS011;1321;48.690;9.022;2023-04-03T07:14:10;63.90;;;35.00;;
2622;SDS011;1321;48.690;9.022;2023-04-03T07:16:39;23.73;;;16.77;;
2622;SDS011;1321;48.690;9.022;2023-04-03T07:19:08;15.40;;;12.40;;
2622;SDS011;1321;48.690;9.022;2023-04-03T07:21:36;8.90;;;8.40;;
2622;SDS011;1321;48.690;9.022;2023-04-03T07:24:04;9.50;;;9.00;;
2622;SDS011;1321;48.690;9.022;2023-04-03T07:26:40;8.90;;;8.30;;
2622;SDS011;1321;48.690;9.022;2023-04-03T07:29:08;7.30;;;6.90;;
2622;SDS011;1321;48.690;9.022;2023-04-03T07:31:39;7.37;;;6.97;;
2622;SDS011;1321;48.690;9.022;2023-04-03T07:34:08;7.57;;;7.17;;
2622;SDS011;1321;48.690;9.022;2023-04-03T07:36:37;6.83;;;6.53;;
2622;SDS011;1321;48.690;9.022;2023-04-03T07:39:05;7.10;;;6.80;;
2622;SDS011;1321;48.690;9.022;2023-04-03T07:41:35;8.40;;;8.00;;
2622;SDS011;1321;48.690;9.022;2023-04-03T07:44:04;8.10;;;7.70;;
2622;SDS011;1321;48.690;9.022;2023-04-03T07:46:35;7.43;;;7.13;;
2622;SDS011;1321;48.690;9.022;2023-04-03T07:49:05;7.37;;;7.07;;
2622;SDS011;1321;48.690;9.022;2023-04-03T07:51:35;8.70;;;8.10;;
2622;SDS011;1321;48.690;9.022;2023-04-03T07:54:04;16.60;;;12.70;;
2622;SDS011;1321;48.690;9.022;2023-04-03T07:56:32;11.77;;;10.77;;
2622;SDS011;1321;48.690;9.022;2023-04-03T07:59:00;9.40;;;8.80;;
2622;SDS011;1321;48.690;9.022;2023-04-03T08:01:29;7.90;;;7.50;;
2622;SDS011;1321;48.690;9.022;2023-04-03T08:03:58;7.77;;;7.37;;
2622;SDS011;1321;48.690;9.022;2023-04-03T08:06:30;8.27;;;7.87;;
2622;SDS011;1321;48.690;9.022;2023-04-03T08:09:12;10.20;;;9.50;;
2622;SDS011;1321;48.690;9.022;2023-04-03T08:11:41;8.03;;;7.60;;
2622;SDS011;1321;48.690;9.022;2023-04-03T08:14:10;7.97;;;7.57;;
2622;SDS011;1321;48.690;9.022;2023-04-03T08:16:42;7.43;;;7.13;;
2622;SDS011;1321;48.690;9.022;2023-04-03T08:19:12;8.10;;;7.60;;
2622;SDS011;1321;48.690;9.022;2023-04-03T08:21:53;9.37;;;8.57;;
2622;SDS011;1321;48.690;9.022;2023-04-03T08:24:23;8.30;;;7.90;;
2622;SDS011;1321;48.690;9.022;2023-04-03T08:26:51;8.20;;;7.90;;
2622;SDS011;1321;48.690;9.022;2023-04-03T08:29:19;7.27;;;7.07;;
2622;SDS011;1321;48.690;9.022;2023-04-03T08:31:48;7.73;;;7.23;;
2622;SDS011;1321;48.690;9.022;2023-04-03T08:34:17;7.40;;;7.13;;
2622;SDS011;1321;48.690;9.022;2023-04-03T08:36:46;7.40;;;7.13;;
2622;SDS011;1321;48.690;9.022;2023-04-03T08:39:16;7.93;;;7.40;;
2622;SDS011;1321;48.690;9.022;2023-04-03T08:41:45;7.50;;;7.30;;
2622;SDS011;1321;48.690;9.022;2023-04-03T08:44:15;7.83;;;7.23;;
2622;SDS011;1321;48.690;9.022;2023-04-03T08:46:58;7.20;;;6.90;;
2622;SDS011;1321;48.690;9.022;2023-04-03T08:49:33;8.20;;;7.90;;
2622;SDS011;1321;48.690;9.022;2023-04-03T08:52:08;8.07;;;7.47;;
2622;SDS011;1321;48.690;9.022;2023-04-03T08:54:47;7.93;;;7.40;;
2622;SDS011;1321;48.690;9.022;2023-04-03T08:57:20;7.53;;;7.33;;
2622;SDS011;1321;48.690;9.022;2023-04-03T08:59:57;7.80;;;7.23;;
2622;SDS011;1321;48.690;9.022;2023-04-03T09:02:30;7.33;;;7.13;;
2622;SDS011;1321;48.690;9.022;2023-04-03T09:05:05;7.10;;;6.90;;
2622;SDS011;1321;48.690;9.022;2023-04-03T09:07:42;7.27;;;7.07;;
2622;SDS011;1321;48.690;9.022;2023-04-03T09:10:18;6.93;;;6.73;;
2622;SDS011;1321;48.690;9.022;2023-04-03T09:12:55;7.30;;;7.00;;
2622;SDS011;1321;48.690;9.022;2023-04-03T09:15:28;7.77;;;7.47;;
2622;SDS011;1321;48.690;9.022;2023-04-03T09:18:05;7.90;;;7.43;;
2622;SDS011;1321;48.690;9.022;2023-04-03T09:20:39;8.33;;;7.80;;
2622;SDS011;1321;48.690;9.022;2023-04-03T09:23:15;7.00;;;6.80;;
2622;SDS011;1321;48.690;9.022;2023-04-03T09:25:51;7.30;;;6.83;;
2622;SDS011;1321;48.690;9.022;2023-04-03T09:28:24;7.13;;;6.73;;
2622;SDS011;1321;48.690;9.022;2023-04-03T09:30:54;7.17;;;6.97;;
2622;SDS011;1321;48.690;9.022;2023-04-03T09:33:22;7.90;;;7.33;;
2622;SDS011;1321;48.690;9.022;2023-04-03T09:35:51;7.93;;;7.13;;
2622;SDS011;1321;48.690;9.022;2023-04-03T09:38:20;7.07;;;6.87;;
2622;SDS011;1321;48.690;9.022;2023-04-03T09:41:02;6.83;;;6.60;;
2622;SDS011;1321;48.690;9.022;2023-04-03T09:43:33;7.20;;;6.80;;
2622;SDS011;1321;48.690;9.022;2023-04-03T09:46:20;7.00;;;6.70;;
2622;SDS011;1321;48.690;9.022;2023-04-03T09:48:56;7.30;;;6.87;;
2622;SDS011;1321;48.690;9.022;2023-04-03T09:51:35;7.17;;;6.83;;
2622;SDS011;1321;48.690;9.022;2023-04-03T09:54:24;7.00;;;6.60;;
2622;SDS011;1321;48.690;9.022;2023-04-03T09:57:00;7.00;;;6.70;;
2622;SDS011;1321;48.690;9.022;2023-04-03T09:59:31;6.60;;;6.30;;
2622;SDS011;1321;48.690;9.022;2023-04-03T10:02:02;6.00;;;5.80;;
2622;SDS011;1321;48.690;9.022;2023-04-03T10:04:46;6.47;;;6.27;;
2622;SDS011;1321;48.690;9.022;2023-04-03T10:07:34;6.30;;;6.10;;
2622;SDS011;1321;48.690;9.022;2023-04-03T10:10:16;6.70;;;6.10;;
2622;SDS011;1321;48.690;9.022;2023-04-03T10:12:50;6.10;;;5.70;;
2622;SDS011;1321;48.690;9.022;2023-04-03T10:15:33;6.13;;;5.83;;
2622;SDS011;1321;48.690;9.022;2023-04-03T10:18:06;6.20;;;6.00;;
2622;SDS011;1321;48.690;9.022;2023-04-03T10:20:50;6.80;;;6.50;;
2622;SDS011;1321;48.690;9.022;2023-04-03T10:23:21;7.00;;;6.70;;
2622;SDS011;1321;48.690;9.022;2023-04-03T10:25:55;6.60;;;6.30;;
2622;SDS011;1321;48.690;9.022;2023-04-03T10:28:42;6.53;;;6.23;;
2622;SDS011;1321;48.690;9.022;2023-04-03T10:31:17;6.57;;;6.10;;
2622;SDS011;1321;48.690;9.022;2023-04-03T10:33:53;6.60;;;6.33;;
2622;SDS011;1321;48.690;9.022;2023-04-03T10:36:33;6.20;;;5.90;;
2622;SDS011;1321;48.690;9.022;2023-04-03T10:39:10;6.07;;;5.77;;
2622;SDS011;1321;48.690;9.022;2023-04-03T10:41:50;6.50;;;6.03;;
2622;SDS011;1321;48.690;9.022;2023-04-03T10:44:49;6.07;;;5.87;;
2622;SDS011;1321;48.690;9.022;2023-04-03T10:47:28;6.50;;;6.30;;
2622;SDS011;1321;48.690;9.022;2023-04-03T10:50:08;6.40;;;6.20;;
2622;SDS011;1321;48.690;9.022;2023-04-03T10:52:52;6.40;;;6.10;;
2622;SDS011;1321;48.690;9.022;2023-04-03T10:55:28;6.60;;;6.20;;
2622;SDS011;1321;48.690;9.022;2023-04-03T10:58:03;6.00;;;5.80;;
2622;SDS011;1321;48.690;9.022;2023-04-03T11:00:36;6.20;;;5.90;;
2622;SDS011;1321;48.690;9.022;2023-04-03T11:03:10;5.80;;;5.50;;
2622;SDS011;1321;48.690;9.022;2023-04-03T11:05:42;5.77;;;5.57;;
2622;SDS011;1321;48.690;9.022;2023-04-03T11:08:13;5.83;;;5.60;;
2622;SDS011;1321;48.690;9.022;2023-04-03T11:10:51;7.00;;;6.40;;
2622;SDS011;1321;48.690;9.022;2023-04-03T11:13:24;6.83;;;6.43;;
2622;SDS011;1321;48.690;9.022;2023-04-03T11:15:59;6.33;;;6.10;;
2622;SDS011;1321;48.690;9.022;2023-04-03T11:18:28;9.47;;;8.67;;
2622;SDS011;1321;48.690;9.022;2023-04-03T11:21:03;7.43;;;7.10;;
2622;SDS011;1321;48.690;9.022;2023-04-03T11:23:36;7.30;;;6.80;;
2622;SDS011;1321;48.690;9.022;2023-04-03T11:26:15;8.23;;;7.83;;
2622;SDS011;1321;48.690;9.022;2023-04-03T11:28:47;7.60;;;7.10;;
2622;SDS011;1321;48.690;9.022;2023-04-03T11:31:35;9.10;;;8.50;;
2622;SDS011;1321;48.690;9.022;2023-04-03T11:34:19;10.80;;;9.90;;
2622;SDS011;1321;48.690;9.022;2023-04-03T11:36:54;6.37;;;6.07;;
2622;SDS011;1321;48.690;9.022;2023-04-03T11:39:26;8.33;;;7.83;;
2622;SDS011;1321;48.690;9.022;2023-04-03T11:42:12;6.67;;;6.27;;
2622;SDS011;1321;48.690;9.022;2023-04-03T11:44:43;6.30;;;6.10;;
2622;SDS011;1321;48.690;9.022;2023-04-03T11:47:12;7.97;;;7.40;;
2622;SDS011;1321;48.690;9.022;2023-04-03T11:53:01;7.13;;;6.83;;
2622;SDS011;1321;48.690;9.022;2023-04-03T11:55:42;6.30;;;5.90;;
2622;SDS011;1321;48.690;9.022;2023-04-03T11:58:22;6.37;;;5.77;;
2622;SDS011;1321;48.690;9.022;2023-04-03T12:00:52;5.70;;;5.50;;
2622;SDS011;1321;48.690;9.022;2023-04-03T12:03:35;5.63;;;5.33;;
2622;SDS011;1321;48.690;9.022;2023-04-03T12:06:50;5.33;;;5.10;;
2622;SDS011;1321;48.690;9.022;2023-04-03T12:12:58;5.30;;;5.00;;
2622;SDS011;1321;48.690;9.022;2023-04-03T12:24:36;5.80;;;5.50;;
2622;SDS011;1321;48.690;9.022;2023-04-03T12:27:16;5.40;;;5.20;;
2622;SDS011;1321;48.690;9.022;2023-04-03T12:29:59;5.40;;;5.20;;
2622;SDS011;1321;48.690;9.022;2023-04-03T12:32:37;5.47;;;5.27;;
2622;SDS011;1321;48.690;9.022;2023-04-03T12:35:43;5.37;;;5.17;;
2622;SDS011;1321;48.690;9.022;2023-04-03T12:41:17;5.17;;;4.90;;
2622;SDS011;1321;48.690;9.022;2023-04-03T12:44:00;5.30;;;4.93;;
2622;SDS011;1321;48.690;9.022;2023-04-03T12:46:50;5.10;;;4.77;;
2622;SDS011;1321;48.690;9.022;2023-04-03T12:49:24;5.27;;;4.97;;
2622;SDS011;1321;48.690;9.022;2023-04-03T12:52:03;4.93;;;4.63;;
2622;SDS011;1321;48.690;9.022;2023-04-03T12:54:35;4.67;;;4.57;;
2622;SDS011;1321;48.690;9.022;2023-04-03T12:57:09;5.13;;;4.83;;
2622;SDS011;1321;48.690;9.022;2023-04-03T12:59:38;4.90;;;4.70;;
2622;SDS011;1321;48.690;9.022;2023-04-03T13:02:13;9.23;;;5.00;;
2622;SDS011;1321;48.690;9.022;2023-04-03T13:04:50;5.00;;;4.70;;
2622;SDS011;1321;48.690;9.022;2023-04-03T13:07:22;5.57;;;5.07;;
2622;SDS011;1321;48.690;9.022;2023-04-03T13:10:00;4.47;;;4.37;;
2622;SDS011;1321;48.690;9.022;2023-04-03T13:12:45;4.90;;;4.70;;
2622;SDS011;1321;48.690;9.022;2023-04-03T13:15:15;5.10;;;4.90;;
2622;SDS011;1321;48.690;9.022;2023-04-03T13:17:45;5.30;;;4.90;;
2622;SDS011;1321;48.690;9.022;2023-04-03T13:20:19;4.80;;;4.50;;
2622;SDS011;1321;48.690;9.022;2023-04-03T13:22:53;5.10;;;4.90;;
2622;SDS011;1321;48.690;9.022;2023-04-03T13:25:25;4.73;;;4.63;;
2622;SDS011;1321;48.690;9.022;2023-04-03T13:27:55;4.80;;;4.60;;
2622;SDS011;1321;48.690;9.022;2023-04-03T13:30:29;5.30;;;4.80;;
2622;SDS011;1321;48.690;9.022;2023-04-03T13:33:00;4.80;;;4.40;;
2622;SDS011;1321;48.690;9.022;2023-04-03T13:35:32;5.50;;;5.20;;
2622;SDS011;1321;48.690;9.022;2023-04-03T13:38:06;4.93;;;4.73;;
2622;SDS011;1321;48.690;9.022;2023-04-03T13:40:49;4.80;;;4.50;;
2622;SDS011;1321;48.690;9.022;2023-04-03T13:43:20;4.40;;;4.00;;
2622;SDS011;1321;48.690;9.022;2023-04-03T13:45:58;9.67;;;8.77;;
2622;SDS011;1321;48.690;9.022;2023-04-03T13:48:35;9.63;;;8.67;;
2622;SDS011;1321;48.690;9.022;2023-04-03T13:51:12;5.93;;;5.50;;
2622;SDS011;1321;48.690;9.022;2023-04-03T13:53:48;8.43;;;7.63;;
2622;SDS011;1321;48.690;9.022;2023-04-03T13:56:20;5.70;;;5.40;;
2622;SDS011;1321;48.690;9.022;2023-04-03T13:58:53;5.70;;;5.40;;
2622;SDS011;1321;48.690;9.022;2023-04-03T14:01:25;5.97;;;5.60;;
2622;SDS011;1321;48.690;9.022;2023-04-03T14:04:00;5.00;;;4.80;;
2622;SDS011;1321;48.690;9.022;2023-04-03T14:06:37;4.97;;;4.77;;
2622;SDS011;1321;48.690;9.022;2023-04-03T14:09:07;5.00;;;4.80;;
2622;SDS011;1321;48.690;9.022;2023-04-03T14:11:35;4.90;;;4.63;;
2622;SDS011;1321;48.690;9.022;2023-04-03T14:14:05;4.87;;;4.63;;
2622;SDS011;1321;48.690;9.022;2023-04-03T14:16:40;4.60;;;4.27;;
2622;SDS011;1321;48.690;9.022;2023-04-03T14:19:14;4.87;;;4.67;;
2622;SDS011;1321;48.690;9.022;2023-04-03T14:21:46;4.57;;;4.40;;
2622;SDS011;1321;48.690;9.022;2023-04-03T14:24:16;4.50;;;4.40;;
2622;SDS011;1321;48.690;9.022;2023-04-03T14:26:48;5.07;;;4.70;;
2622;SDS011;1321;48.690;9.022;2023-04-03T14:29:17;4.70;;;4.30;;
2622;SDS011;1321;48.690;9.022;2023-04-03T14:31:46;4.20;;;4.00;;
2622;SDS011;1321;48.690;9.022;2023-04-03T14:34:26;4.97;;;4.57;;
2622;SDS011;1321;48.690;9.022;2023-04-03T14:36:54;4.90;;;4.80;;
2622;SDS011;1321;48.690;9.022;2023-04-03T14:39:23;5.10;;;4.90;;
2622;SDS011;1321;48.690;9.022;2023-04-03T14:41:53;5.07;;;4.77;;
2622;SDS011;1321;48.690;9.022;2023-04-03T14:44:21;4.80;;;4.50;;
2622;SDS011;1321;48.690;9.022;2023-04-03T14:46:49;4.80;;;4.60;;
2622;SDS011;1321;48.690;9.022;2023-04-03T14:49:24;4.87;;;4.67;;
2622;SDS011;1321;48.690;9.022;2023-04-03T14:51:54;4.77;;;4.37;;
2622;SDS011;1321;48.690;9.022;2023-04-03T14:54:24;5.80;;;4.93;;
2622;SDS011;1321;48.690;9.022;2023-04-03T14:56:55;4.50;;;4.40;;
2622;SDS011;1321;48.690;9.022;2023-04-03T14:59:24;4.47;;;4.17;;
2622;SDS011;1321;48.690;9.022;2023-04-03T15:01:53;4.70;;;4.50;;
2622;SDS011;1321;48.690;9.022;2023-04-03T15:04:22;3.80;;;3.60;;
2622;SDS011;1321;48.690;9.022;2023-04-03T15:06:51;3.90;;;3.70;;
2622;SDS011;1321;48.690;9.022;2023-04-03T15:09:21;3.97;;;3.80;;
2622;SDS011;1321;48.690;9.022;2023-04-03T15:11:52;4.10;;;3.80;;
2622;SDS011;1321;48.690;9.022;2023-04-03T15:14:22;3.73;;;3.63;;
2622;SDS011;1321;48.690;9.022;2023-04-03T15:17:08;4.03;;;3.80;;
2622;SDS011;1321;48.690;9.022;2023-04-03T15:19:42;4.60;;;4.40;;
2622;SDS011;1321;48.690;9.022;2023-04-03T15:22:12;4.10;;;3.90;;
2622;SDS011;1321;48.690;9.022;2023-04-03T15:24:42;4.00;;;3.70;;
2622;SDS011;1321;48.690;9.022;2023-04-03T15:27:13;3.93;;;3.73;;
2622;SDS011;1321;48.690;9.022;2023-04-03T15:29:42;3.77;;;3.60;;
2622;SDS011;1321;48.690;9.022;2023-04-03T15:32:11;3.90;;;3.60;;
2622;SDS011;1321;48.690;9.022;2023-04-03T15:34:40;3.50;;;3.30;;
2622;SDS011;1321;48.690;9.022;2023-04-03T15:37:08;3.80;;;3.70;;
2622;SDS011;1321;48.690;9.022;2023-04-03T15:39:36;4.30;;;4.00;;
2622;SDS011;1321;48.690;9.022;2023-04-03T15:42:04;4.03;;;3.83;;
2622;SDS011;1321;48.690;9.022;2023-04-03T15:44:34;3.93;;;3.73;;
2622;SDS011;1321;48.690;9.022;2023-04-03T15:47:03;4.00;;;3.90;;
2622;SDS011;1321;48.690;9.022;2023-04-03T15:49:31;4.50;;;4.20;;
2622;SDS011;1321;48.690;9.022;2023-04-03T15:52:01;4.17;;;3.97;;
2622;SDS011;1321;48.690;9.022;2023-04-03T15:54:30;3.73;;;3.63;;
2622;SDS011;1321;48.690;9.022;2023-04-03T15:56:58;4.57;;;4.30;;
2622;SDS011;1321;48.690;9.022;2023-04-03T15:59:26;4.43;;;4.17;;
2622;SDS011;1321;48.690;9.022;2023-04-03T16:01:56;3.87;;;3.77;;